Time;durP1;ratioP1;P1;durP2;ratioP2;P2;SDS_P1;SDS_P2;PMS_P1;PMS_P2;Temp;Humidity;BMP_temperature;BMP_pressure;BME280_temperature;BME280_humidity;BME280_pressure;Samples;Min_cycle;Max_cycle;Signal;HPM_P1;HPM_P2
2021/07/07 00:01:47;;;;;;;5.30;0.98;;;;;;;15.85;79.58;100260.53;4938047;28;20077;-87
2021/07/07 00:04:13;;;;;;;4.82;0.80;;;;;;;15.86;77.51;100257.88;4939021;29;20410;-87
2021/07/07 00:06:38;;;;;;;8.02;1.17;;;;;;;15.85;78.58;100252.69;4938365;29;20035;-87
2021/07/07 00:09:03;;;;;;;4.03;0.90;;;;;;;15.74;79.36;100249.72;4938340;29;20395;-87
2021/07/07 00:11:29;;;;;;;5.57;0.88;;;;;;;15.74;78.52;100263.66;4938728;29;20502;-88
2021/07/07 00:13:54;;;;;;;4.72;0.90;;;;;;;15.67;80.14;100275.31;4955055;28;20027;-87
2021/07/07 00:16:19;;;;;;;3.83;0.80;;;;;;;15.62;81.02;100275.47;4955457;29;20475;-88
2021/07/07 00:18:45;;;;;;;12.90;1.30;;;;;;;15.55;80.12;100276.66;4938281;29;20019;-87
2021/07/07 00:21:11;;;;;;;2.85;0.90;;;;;;;15.50;81.14;100288.22;4938275;29;20042;-87
2021/07/07 00:23:36;;;;;;;3.78;0.90;;;;;;;15.46;80.74;100294.50;4938093;29;20031;-87
2021/07/07 00:26:02;;;;;;;5.70;1.10;;;;;;;15.43;81.42;100298.94;4937740;29;20492;-87
2021/07/07 00:28:27;;;;;;;5.07;0.93;;;;;;;15.29;82.15;100306.50;4937760;29;20030;-87
2021/07/07 00:30:57;;;;;;;4.88;1.08;;;;;;;15.24;84.25;100305.84;4957252;28;20024;-87
2021/07/07 00:33:22;;;;;;;9.15;1.30;;;;;;;15.11;84.41;100312.47;4941704;29;20110;-87
2021/07/07 00:35:48;;;;;;;4.82;0.90;;;;;;;15.05;85.67;100304.88;4958432;29;20055;-87
2021/07/07 00:38:14;;;;;;;4.88;0.82;;;;;;;14.93;86.61;100296.66;4941431;29;20475;-87
2021/07/07 00:40:41;;;;;;;4.25;0.90;;;;;;;14.93;85.80;100304.50;4941943;29;20505;-87
2021/07/07 00:43:07;;;;;;;6.35;1.13;;;;;;;14.86;88.55;100321.28;4941091;29;20467;-87
2021/07/07 00:45:32;;;;;;;2.60;0.80;;;;;;;14.76;87.10;100330.41;4941446;29;20070;-88
2021/07/07 00:47:57;;;;;;;5.57;0.95;;;;;;;14.71;86.75;100329.72;4958320;29;20034;-87
2021/07/07 00:50:24;;;;;;;6.63;1.15;;;;;;;14.77;85.79;100333.88;4958860;29;20023;-87
2021/07/07 00:52:49;;;;;;;6.57;1.00;;;;;;;14.74;86.76;100332.22;4973128;28;20023;-87
2021/07/07 00:55:16;;;;;;;6.65;1.02;;;;;;;14.73;87.07;100335.75;4958236;29;20402;-87
2021/07/07 00:57:46;;;;;;;4.78;1.00;;;;;;;14.69;87.43;100335.03;4958110;29;20027;-87
2021/07/07 01:00:14;;;;;;;10.25;1.50;;;;;;;14.74;87.26;100334.84;4958323;29;20033;-87
2021/07/07 01:02:43;;;;;;;7.93;1.10;;;;;;;14.74;87.22;100329.63;4940998;29;20027;-87
2021/07/07 01:05:11;;;;;;;7.28;1.10;;;;;;;14.71;88.29;100338.41;4940837;29;20047;-88
2021/07/07 01:07:37;;;;;;;4.75;1.10;;;;;;;14.66;88.75;100342.97;4958316;29;20038;-87
2021/07/07 01:10:07;;;;;;;8.38;1.48;;;;;;;14.63;88.28;100342.25;4941104;29;20019;-87
2021/07/07 01:12:33;;;;;;;9.57;1.40;;;;;;;14.51;89.80;100348.78;4941509;29;20031;-87
2021/07/07 01:15:04;;;;;;;6.35;1.00;;;;;;;14.46;89.75;100348.91;4957817;29;20031;-87
2021/07/07 01:17:32;;;;;;;5.05;1.10;;;;;;;14.38;89.95;100353.59;4940651;29;20475;-87
2021/07/07 01:20:03;;;;;;;6.18;1.10;;;;;;;14.43;89.01;100354.25;4958208;29;20031;-87
2021/07/07 01:22:29;;;;;;;7.63;1.25;;;;;;;14.36;90.42;100346.72;4940731;29;20027;-87
2021/07/07 01:24:55;;;;;;;4.32;0.98;;;;;;;14.33;91.00;100347.69;4940435;29;20538;-87
2021/07/07 01:27:21;;;;;;;3.58;0.82;;;;;;;14.34;90.12;100343.31;4940405;29;20027;-87
2021/07/07 01:29:46;;;;;;;3.80;1.13;;;;;;;14.24;90.94;100337.59;4957833;29;20027;-87
2021/07/07 01:32:13;;;;;;;3.58;0.85;;;;;;;14.22;90.75;100344.59;4957933;28;20039;-87
2021/07/07 01:34:38;;;;;;;3.47;0.70;;;;;;;14.28;90.21;100344.38;4957662;29;20027;-87
2021/07/07 01:37:04;;;;;;;10.50;1.98;;;;;;;14.35;90.20;100348.47;4940604;29;20026;-87
2021/07/07 01:39:30;;;;;;;4.65;0.98;;;;;;;14.35;89.46;100352.84;4941000;29;20501;-87
2021/07/07 01:41:56;;;;;;;9.45;1.00;;;;;;;14.43;89.57;100353.41;4940324;28;20030;-87
2021/07/07 01:44:21;;;;;;;3.03;0.88;;;;;;;14.26;91.25;100352.28;4940350;29;20031;-87
2021/07/07 01:46:46;;;;;;;3.58;0.70;;;;;;;14.23;91.31;100346.31;4957217;29;20027;-87
2021/07/07 01:49:12;;;;;;;5.35;0.90;;;;;;;14.29;90.74;100348.72;4940842;29;20035;-87
2021/07/07 01:51:37;;;;;;;6.43;0.95;;;;;;;14.20;91.97;100349.88;4957001;29;20110;-87
2021/07/07 01:54:04;;;;;;;4.55;1.00;;;;;;;14.14;92.13;100350.13;4957014;28;20122;-87
2021/07/07 01:56:29;;;;;;;4.25;1.00;;;;;;;14.05;93.23;100351.28;4940159;29;20027;-87
2021/07/07 01:58:54;;;;;;;5.18;1.13;;;;;;;14.00;93.88;100344.53;4957269;29;20020;-87
2021/07/07 02:01:20;;;;;;;6.00;1.13;;;;;;;14.01;94.46;100346.25;4939697;29;20443;-87
2021/07/07 02:03:45;;;;;;;6.53;1.42;;;;;;;13.93;94.97;100348.28;4939778;29;20038;-87
2021/07/07 02:06:10;;;;;;;4.70;0.95;;;;;;;13.91;94.93;100337.03;4939853;29;20031;-87
2021/07/07 02:08:36;;;;;;;4.55;0.80;;;;;;;13.84;96.31;100333.81;4971868;28;20471;-87
2021/07/07 02:11:01;;;;;;;5.25;0.90;;;;;;;13.89;97.06;100331.91;4940324;29;20038;-87
2021/07/07 02:13:27;;;;;;;3.90;1.00;;;;;;;13.87;95.98;100338.06;4939716;29;20109;-87
2021/07/07 02:15:52;;;;;;;8.35;1.08;;;;;;;13.78;96.36;100329.66;4957199;29;20387;-87
2021/07/07 02:18:18;;;;;;;6.03;1.00;;;;;;;13.82;95.95;100317.34;4939605;29;20471;-87
2021/07/07 02:20:46;;;;;;;5.38;0.90;;;;;;;13.86;96.04;100332.00;4939455;29;20403;-87
2021/07/07 02:23:12;;;;;;;7.70;1.25;;;;;;;13.91;95.79;100335.28;4956598;28;20488;-88
2021/07/07 02:25:39;;;;;;;5.80;1.13;;;;;;;13.74;97.25;100335.88;4939744;29;20061;-87
2021/07/07 02:28:06;;;;;;;3.95;1.02;;;;;;;13.81;96.44;100349.56;4956526;29;20030;-87
2021/07/07 02:30:35;;;;;;;2.67;0.98;;;;;;;13.75;97.31;100347.16;4940157;29;20117;-87
2021/07/07 02:33:01;;;;;;;10.15;1.23;;;;;;;13.72;97.47;100347.25;4939047;29;20034;-87
2021/07/07 02:35:29;;;;;;;3.05;0.90;;;;;;;13.69;97.56;100336.94;4956911;29;20027;-87
2021/07/07 02:37:55;;;;;;;4.35;1.33;;;;;;;13.56;99.45;100344.34;4956723;29;20027;-87
2021/07/07 02:40:26;;;;;;;5.00;1.15;;;;;;;13.55;99.70;100338.28;4939989;29;20027;-87
2021/07/07 02:42:52;;;;;;;3.63;0.90;;;;;;;13.53;99.63;100349.66;4956203;28;20038;-87
2021/07/07 02:45:19;;;;;;;4.43;1.00;;;;;;;13.51;100.00;100346.25;4939831;29;20411;-87
2021/07/07 02:47:46;;;;;;;6.20;1.00;;;;;;;13.48;100.00;100336.75;4939098;29;20075;-87
2021/07/07 02:50:14;;;;;;;3.55;1.17;;;;;;;13.45;100.00;100336.88;4939596;29;20034;-87
2021/07/07 02:52:42;;;;;;;8.50;1.17;;;;;;;13.38;100.00;100332.78;4938573;29;20031;-86
2021/07/07 02:55:11;;;;;;;4.57;1.08;;;;;;;13.39;100.00;100331.84;4958614;29;20027;-86
2021/07/07 02:57:58;;;;;;;5.35;0.90;;;;;;;13.41;100.00;100335.28;4958495;29;20027;-87
2021/07/07 03:00:47;;;;;;;6.05;1.10;;;;;;;13.25;100.00;100349.72;4959033;29;20438;-87
2021/07/07 03:03:15;;;;;;;3.92;0.88;;;;;;;13.20;100.00;100347.22;4958680;28;20027;-86
2021/07/07 03:05:43;;;;;;;4.57;1.08;;;;;;;13.13;100.00;100353.53;4974281;28;20034;-87
2021/07/07 03:08:10;;;;;;;7.82;1.20;;;;;;;13.14;100.00;100356.06;4942210;29;20063;-87
2021/07/07 03:10:36;;;;;;;6.20;1.08;;;;;;;13.15;100.00;100354.34;4940697;29;20037;-87
2021/07/07 03:13:01;;;;;;;4.55;1.02;;;;;;;13.12;100.00;100355.28;4939808;29;20475;-86
2021/07/07 03:15:27;;;;;;;6.18;0.95;;;;;;;13.25;100.00;100362.75;4939321;29;20023;-87
2021/07/07 03:17:54;;;;;;;6.25;1.20;;;;;;;13.23;100.00;100364.50;4938563;29;20077;-87
2021/07/07 03:20:19;;;;;;;7.35;1.15;;;;;;;13.35;100.00;100366.75;4956143;29;20023;-87
2021/07/07 03:22:45;;;;;;;4.60;0.85;;;;;;;13.41;100.00;100366.53;4938716;29;20027;-86
2021/07/07 03:25:10;;;;;;;3.92;0.85;;;;;;;13.46;100.00;100375.06;4939045;29;20079;-87
2021/07/07 03:27:36;;;;;;;5.47;1.00;;;;;;;13.50;100.00;100366.22;4955768;29;20039;-87
2021/07/07 03:30:04;;;;;;;6.38;1.10;;;;;;;13.55;100.00;100369.53;4955535;29;20031;-87
2021/07/07 03:32:29;;;;;;;7.95;1.35;;;;;;;13.77;100.00;100368.81;4955466;28;20038;-87
2021/07/07 03:34:54;;;;;;;5.38;0.98;;;;;;;13.69;100.00;100363.84;4938477;29;20411;-87
2021/07/07 03:37:20;;;;;;;4.30;1.10;;;;;;;13.69;100.00;100366.47;4938461;29;20019;-87
2021/07/07 03:39:45;;;;;;;5.05;1.17;;;;;;;13.77;100.00;100371.44;4938300;29;20022;-87
2021/07/07 03:42:11;;;;;;;5.68;1.35;;;;;;;13.72;100.00;100368.97;4955497;28;20070;-86
2021/07/07 03:44:36;;;;;;;5.95;1.20;;;;;;;13.59;100.00;100371.13;4938747;29;20090;-87
2021/07/07 03:47:01;;;;;;;3.05;0.90;;;;;;;13.59;100.00;100372.91;4938279;29;20039;-87
2021/07/07 03:49:27;;;;;;;5.00;1.00;;;;;;;13.61;100.00;100372.81;4938110;29;20089;-87
2021/07/07 03:51:52;;;;;;;6.65;1.20;;;;;;;13.72;100.00;100381.16;4955511;28;20059;-86
2021/07/07 03:54:17;;;;;;;6.63;1.65;;;;;;;13.71;100.00;100374.25;4938347;29;20070;-87
2021/07/07 03:56:43;;;;;;;4.70;0.98;;;;;;;13.68;100.00;100374.34;4938030;29;20118;-87
2021/07/07 03:59:08;;;;;;;5.55;1.25;;;;;;;13.67;100.00;100373.50;4955389;29;20035;-87
2021/07/07 04:01:33;;;;;;;6.25;1.20;;;;;;;13.67;100.00;100378.72;4938171;29;20035;-87
2021/07/07 04:03:59;;;;;;;6.50;1.45;;;;;;;13.81;100.00;100388.66;4955331;28;20027;-87
2021/07/07 04:06:24;;;;;;;5.95;1.17;;;;;;;13.87;100.00;100390.19;4942115;29;20074;-87
2021/07/07 04:08:49;;;;;;;5.95;1.08;;;;;;;13.91;100.00;100392.63;4974781;28;20027;-86
2021/07/07 04:11:14;;;;;;;6.07;0.90;;;;;;;13.95;100.00;100399.47;4974074;28;20023;-87
2021/07/07 04:13:40;;;;;;;3.67;0.90;;;;;;;14.04;100.00;100409.59;4941825;29;20035;-87
2021/07/07 04:16:05;;;;;;;4.43;0.90;;;;;;;14.03;100.00;100423.50;4941698;29;20042;-87
2021/07/07 04:18:30;;;;;;;5.40;0.80;;;;;;;14.03;100.00;100422.66;4941741;29;20096;-87
2021/07/07 04:20:56;;;;;;;3.60;0.98;;;;;;;14.03;100.00;100417.44;4941678;29;20121;-87
2021/07/07 04:23:24;;;;;;;4.50;1.02;;;;;;;13.99;100.00;100415.84;4958780;28;20029;-87
2021/07/07 04:25:49;;;;;;;3.33;1.25;;;;;;;13.90;100.00;100424.00;4958983;29;20034;-87
2021/07/07 04:28:14;;;;;;;5.70;1.10;;;;;;;13.91;100.00;100425.69;4975668;28;20474;-87
2021/07/07 04:30:40;;;;;;;4.78;1.35;;;;;;;13.89;100.00;100419.69;4941747;29;20023;-87
2021/07/07 04:33:05;;;;;;;3.28;0.85;;;;;;;13.95;100.00;100428.16;4942357;29;20027;-87
2021/07/07 04:35:31;;;;;;;6.63;1.00;;;;;;;13.99;100.00;100426.28;4941650;29;20102;-87
2021/07/07 04:37:57;;;;;;;4.50;0.80;;;;;;;14.08;100.00;100435.56;4941500;29;20041;-87
2021/07/07 04:40:23;;;;;;;6.10;1.02;;;;;;;14.12;100.00;100437.13;4941369;29;20117;-87
2021/07/07 04:42:50;;;;;;;5.30;1.10;;;;;;;14.13;100.00;100434.50;4941120;29;20487;-86
2021/07/07 04:45:15;;;;;;;6.40;1.30;;;;;;;14.16;100.00;100438.72;4941257;29;20085;-87
2021/07/07 04:47:41;;;;;;;7.38;1.60;;;;;;;14.12;100.00;100439.75;4941069;29;20027;-87
2021/07/07 04:50:12;;;;;;;3.97;1.30;;;;;;;14.13;100.00;100442.31;4941299;29;20055;-87
2021/07/07 04:52:38;;;;;;;6.25;1.33;;;;;;;14.09;100.00;100432.88;4958671;28;20031;-86
2021/07/07 04:55:06;;;;;;;7.70;1.00;;;;;;;14.09;100.00;100432.03;4941252;29;20483;-87
2021/07/07 04:57:40;;;;;;;4.63;1.30;;;;;;;14.17;100.00;100440.44;4973194;28;20028;-87
2021/07/07 05:00:06;;;;;;;;;;;;;;;14.21;100.00;100431.59;4958714;29;20479;-87
2021/07/07 05:02:32;;;;;;;7.07;1.30;;;;;;;14.22;100.00;100443.72;4973099;28;19910;-87
2021/07/07 05:04:57;;;;;;;13.20;1.30;;;;;;;14.26;100.00;100442.72;4941122;29;20138;-87
2021/07/07 05:07:22;;;;;;;4.93;1.10;;;;;;;14.28;100.00;100438.28;4940881;29;20031;-87
2021/07/07 05:09:47;;;;;;;6.30;1.10;;;;;;;14.28;100.00;100433.06;4973056;28;20430;-87
2021/07/07 05:12:13;;;;;;;7.15;1.15;;;;;;;14.32;100.00;100432.09;4940648;29;20027;-87
2021/07/07 05:14:38;;;;;;;5.85;1.25;;;;;;;14.27;100.00;100432.22;4941630;29;20027;-87
2021/07/07 05:17:04;;;;;;;4.35;1.30;;;;;;;14.30;100.00;100441.72;4940530;29;20019;-87
2021/07/07 05:19:30;;;;;;;6.70;1.38;;;;;;;14.34;100.00;100442.44;4940742;29;20019;-87
2021/07/07 05:21:56;;;;;;;5.47;1.20;;;;;;;14.40;100.00;100450.91;4941137;28;20398;-86
2021/07/07 05:24:24;;;;;;;8.50;1.30;;;;;;;14.44;100.00;100447.31;4940810;29;20031;-87
2021/07/07 05:26:49;;;;;;;7.03;1.63;;;;;;;14.44;100.00;100442.09;4940665;29;20510;-87
2021/07/07 05:29:16;;;;;;;3.95;0.95;;;;;;;14.49;100.00;100450.56;4940679;29;20035;-87
2021/07/07 05:31:42;;;;;;;6.57;1.40;;;;;;;14.44;100.00;100455.13;4941300;28;20539;-86
2021/07/07 05:34:07;;;;;;;6.10;1.50;;;;;;;14.52;100.00;100451.41;4957719;29;20031;-86
2021/07/07 05:36:32;;;;;;;4.93;1.38;;;;;;;14.49;100.00;100463.63;4957488;29;20074;-87
2021/07/07 05:39:01;;;;;;;5.90;1.10;;;;;;;14.56;100.00;100460.81;4940302;29;20466;-87
2021/07/07 05:41:26;;;;;;;9.27;1.75;;;;;;;14.64;100.00;100461.41;4940192;29;20023;-86
2021/07/07 05:43:54;;;;;;;6.18;1.42;;;;;;;14.75;100.00;100467.09;4940071;29;20026;-87
2021/07/07 05:46:20;;;;;;;4.80;1.30;;;;;;;14.90;100.00;100476.97;4958063;29;20435;-87
2021/07/07 05:48:46;;;;;;;5.03;1.20;;;;;;;15.13;100.00;100473.47;4940259;29;20031;-87
2021/07/07 05:51:11;;;;;;;6.47;1.45;;;;;;;15.42;97.33;100480.19;4940333;29;20019;-87
2021/07/07 05:53:36;;;;;;;5.65;1.05;;;;;;;15.88;94.92;100474.88;4957644;28;20027;-87
2021/07/07 05:56:02;;;;;;;7.13;1.20;;;;;;;15.92;95.70;100472.97;4941097;29;20446;-87
2021/07/07 05:58:30;;;;;;;6.45;1.10;;;;;;;15.56;96.95;100474.41;4941196;29;20019;-87
2021/07/07 06:00:55;;;;;;;6.32;1.10;;;;;;;15.82;96.49;100469.91;4940666;29;20034;-87
2021/07/07 06:03:21;;;;;;;4.93;1.17;;;;;;;15.73;98.69;100478.97;4940768;29;20031;-87
2021/07/07 06:05:46;;;;;;;6.80;1.15;;;;;;;15.68;99.18;100483.56;4940401;29;20203;-87
2021/07/07 06:08:11;;;;;;;9.82;1.30;;;;;;;15.71;100.00;100490.44;4940116;29;20059;-87
2021/07/07 06:10:37;;;;;;;7.78;1.63;;;;;;;15.85;98.88;100485.47;4940164;29;20368;-87
2021/07/07 06:13:06;;;;;;;6.93;1.50;;;;;;;16.10;96.25;100494.00;4941673;29;20034;-87
2021/07/07 06:19:10;;;;;;;5.97;1.48;;;;;;;16.18;94.79;100501.53;4879626;29;20029;-87
2021/07/07 06:21:35;;;;;;;6.80;2.05;;;;;;;16.33;94.35;100502.66;4941022;29;20057;-87
2021/07/07 06:24:01;;;;;;;11.35;3.80;;;;;;;16.61;90.80;100493.59;4957170;28;20031;-87
2021/07/07 06:26:28;;;;;;;16.00;7.93;;;;;;;16.90;91.96;100494.91;4939916;29;20027;-87
2021/07/07 06:28:55;;;;;;;12.68;5.13;;;;;;;16.89;90.49;100495.84;4955797;28;20031;-87
2021/07/07 06:31:21;;;;;;;10.52;5.70;;;;;;;16.93;90.99;100495.66;4957398;29;20023;-87
2021/07/07 06:33:47;;;;;;;10.90;4.72;;;;;;;17.47;nan;100498.38;4939176;29;20062;-87
2021/07/07 06:36:12;;;;;;;29.63;18.02;;;;;;;18.68;81.89;100494.09;4971651;28;20040;-86
2021/07/07 06:38:37;;;;;;;7.72;3.10;;;;;;;18.76;78.00;100497.19;4939113;29;20532;-87
2021/07/07 06:41:02;;;;;;;9.13;2.45;;;;;;;18.67;78.07;100513.41;4939161;29;20030;-87
2021/07/07 06:43:28;;;;;;;6.70;1.77;;;;;;;19.45;75.31;100507.41;4940710;29;20023;-87
2021/07/07 06:45:56;;;;;;;4.55;1.15;;;;;;;20.31;70.55;100499.84;4939096;29;20034;-87
2021/07/07 06:48:21;;;;;;;9.35;1.42;;;;;;;21.05;66.71;100492.72;4939478;29;20122;-87
2021/07/07 06:50:46;;;;;;;5.80;1.00;;;;;;;19.97;66.72;100509.72;4939083;29;20167;-87
2021/07/07 06:53:12;;;;;;;6.05;1.00;;;;;;;18.96;73.04;100511.88;4938895;29;20046;-87
2021/07/07 06:55:37;;;;;;;4.40;1.10;;;;;;;19.23;71.47;100501.66;4939153;29;20426;-87
2021/07/07 06:58:05;;;;;;;5.82;1.27;;;;;;;19.63;71.30;100508.16;4939820;29;20034;-87
2021/07/07 07:00:34;;;;;;;5.85;1.00;;;;;;;20.84;65.01;100511.59;4938801;29;20054;-87
2021/07/07 07:02:59;;;;;;;5.72;1.38;;;;;;;21.25;60.81;100521.34;4938772;29;20403;-89
2021/07/07 07:05:24;;;;;;;3.97;0.95;;;;;;;20.58;61.65;100521.09;4939123;29;20036;-87
2021/07/07 07:07:50;;;;;;;5.68;1.02;;;;;;;20.57;64.69;100535.22;4939550;29;20024;-88
2021/07/07 07:10:15;;;;;;;5.82;1.20;;;;;;;19.70;71.39;100545.53;4956072;29;20510;-88
2021/07/07 07:12:44;;;;;;;5.80;0.90;;;;;;;19.22;68.84;100549.94;4938520;29;20483;-88
2021/07/07 07:15:11;;;;;;;5.03;1.50;;;;;;;18.81;73.69;100545.97;4939428;29;20126;-87
2021/07/07 07:17:37;;;;;;;7.35;1.45;;;;;;;18.90;74.53;100549.00;4938522;29;20530;-86
2021/07/07 07:20:05;;;;;;;5.53;1.15;;;;;;;19.71;68.83;100555.13;4970433;28;20055;-87
2021/07/07 07:22:31;;;;;;;7.47;1.40;;;;;;;19.11;71.12;100555.75;4938417;29;20050;-88
2021/07/07 07:24:56;;;;;;;4.78;1.00;;;;;;;18.93;69.91;100557.56;4938809;29;20491;-87
2021/07/07 07:27:22;;;;;;;7.93;1.10;;;;;;;18.48;70.62;100564.28;4970170;28;20023;-87
2021/07/07 07:29:47;;;;;;;4.88;1.00;;;;;;;20.50;63.70;100560.19;4938816;29;20062;-87
2021/07/07 07:32:12;;;;;;;4.85;0.88;;;;;;;21.25;61.55;100560.91;4938311;29;20028;-88
2021/07/07 07:34:38;;;;;;;5.20;1.02;;;;;;;20.48;62.68;100567.34;4938386;29;20050;-87
2021/07/07 07:37:05;;;;;;;6.28;1.00;;;;;;;20.42;64.06;100558.03;4938101;29;20475;-86
2021/07/07 07:39:50;;;;;;;4.68;0.90;;;;;;;20.12;64.20;100567.72;4955764;28;20027;-87
2021/07/07 07:42:17;;;;;;;9.02;1.20;;;;;;;20.87;63.87;100558.88;4938178;29;20439;-86
2021/07/07 07:44:44;;;;;;;5.47;1.05;;;;;;;21.35;62.77;100569.97;4938423;29;20027;-87
2021/07/07 07:47:10;;;;;;;5.82;0.93;;;;;;;21.55;56.09;100570.47;4955385;29;20451;-87
2021/07/07 07:49:36;;;;;;;5.13;1.00;;;;;;;22.44;54.45;100570.78;4938457;29;20066;-87
2021/07/07 07:52:02;;;;;;;5.97;0.77;;;;;;;22.42;55.02;100571.88;4938016;28;20054;-87
2021/07/07 07:54:29;;;;;;;6.78;0.98;;;;;;;22.48;51.56;100563.53;4955398;29;20058;-87
2021/07/07 07:56:54;;;;;;;4.93;1.25;;;;;;;23.41;52.79;100564.13;4938810;29;20346;-87
2021/07/07 07:59:20;;;;;;;4.55;1.02;;;;;;;24.33;51.83;100570.59;4938012;29;20078;-87
2021/07/07 08:01:45;;;;;;;5.07;1.02;;;;;;;24.15;49.12;100572.00;4937911;28;20517;-86
2021/07/07 08:04:10;;;;;;;3.85;0.73;;;;;;;24.12;50.21;100573.06;4938281;29;20023;-87
2021/07/07 08:06:35;;;;;;;4.13;1.10;;;;;;;24.33;46.74;100570.59;4955253;29;20086;-87
2021/07/07 08:09:04;;;;;;;4.43;1.05;;;;;;;25.42;45.69;100581.59;4955330;29;20113;-87
2021/07/07 08:11:29;;;;;;;7.60;1.05;;;;;;;24.28;48.85;100583.34;4937820;29;20019;-87
2021/07/07 08:13:54;;;;;;;1.95;0.60;;;;;;;25.01;45.72;100575.06;4954990;28;20081;-87
2021/07/07 08:16:21;;;;;;;4.90;0.75;;;;;;;25.66;44.13;100576.09;4937978;29;20143;-87
2021/07/07 08:18:47;;;;;;;5.80;1.30;;;;;;;25.16;42.74;100583.69;4955041;29;20139;-87
2021/07/07 08:21:12;;;;;;;4.95;0.98;;;;;;;24.85;44.43;100582.56;4954963;29;20074;-87
2021/07/07 08:23:37;;;;;;;5.40;0.95;;;;;;;25.44;44.30;100578.81;4937994;29;20023;-87
2021/07/07 08:26:03;;;;;;;8.43;1.60;;;;;;;26.23;42.79;100579.41;4954932;29;20038;-88
2021/07/07 08:28:28;;;;;;;4.53;0.80;;;;;;;25.84;43.65;100581.75;4955021;29;20036;-87
2021/07/07 08:30:53;;;;;;;3.55;0.82;;;;;;;26.23;45.12;100582.06;4937957;29;20475;-87
2021/07/07 08:33:19;;;;;;;4.68;0.95;;;;;;;25.65;44.89;100584.22;4937631;29;20034;-88
2021/07/07 08:35:44;;;;;;;4.47;0.93;;;;;;;26.89;44.23;100587.16;4955115;29;20030;-88
2021/07/07 08:38:10;;;;;;;4.03;0.90;;;;;;;26.47;43.50;100592.47;4954856;29;20051;-88
2021/07/07 08:40:35;;;;;;;5.13;0.90;;;;;;;26.12;44.67;100585.66;4937635;29;20431;-88
2021/07/07 08:43:01;;;;;;;9.50;1.13;;;;;;;26.10;42.48;100581.41;4954689;28;20399;-87
2021/07/07 08:45:27;;;;;;;4.97;1.35;;;;;;;26.68;41.82;100576.53;4954696;29;20035;-87
2021/07/07 08:47:53;;;;;;;5.18;1.00;;;;;;;26.17;42.45;100583.47;4954706;29;20027;-87
2021/07/07 08:50:34;;;;;;;4.85;1.20;;;;;;;26.33;43.23;100582.16;4938212;28;20026;-87
2021/07/07 08:53:01;;;;;;;5.53;1.25;;;;;;;25.61;42.75;100582.75;4972989;28;20027;-87
2021/07/07 08:55:27;;;;;;;5.47;1.10;;;;;;;26.41;40.39;100582.34;4958505;29;20027;-87
2021/07/07 08:57:52;;;;;;;5.15;1.20;;;;;;;26.80;42.10;100591.44;4942005;29;20027;-89
2021/07/07 09:00:39;;;;;;;5.47;0.77;;;;;;;26.74;41.80;100581.34;4958016;29;20114;-88
2021/07/07 09:03:11;;;;;;;4.60;1.35;;;;;;;27.17;41.87;100585.63;4941261;29;20074;-87
2021/07/07 09:06:15;;;;;;;5.13;1.20;;;;;;;26.72;40.95;100588.59;4941370;29;20031;-87
2021/07/07 09:08:48;;;;;;;3.58;0.82;;;;;;;25.55;41.39;100594.72;4952303;29;20046;-88
2021/07/07 09:11:22;;;;;;;5.07;1.00;;;;;;;26.25;43.10;100600.56;4941877;29;20034;-87
2021/07/07 09:14:07;;;;;;;6.30;1.38;;;;;;;26.92;42.95;100597.53;4941370;29;20453;-87
2021/07/07 09:17:01;;;;;;;4.60;1.10;;;;;;;26.43;41.70;100608.84;4958747;29;20034;-87
2021/07/07 09:19:26;;;;;;;8.07;1.15;;;;;;;26.35;41.17;100607.63;4973856;28;20118;-87
2021/07/07 09:22:04;;;;;;;8.50;1.50;;;;;;;26.43;38.41;100607.00;4940482;28;20110;-86
2021/07/07 09:24:29;;;;;;;4.82;1.20;;;;;;;25.82;40.79;100614.75;4941453;29;20027;-87
2021/07/07 09:27:01;;;;;;;4.28;0.95;;;;;;;25.55;40.84;100617.78;4940748;29;20361;-87
2021/07/07 09:29:44;;;;;;;5.78;0.90;;;;;;;26.50;40.06;100621.50;4940606;29;20368;-87
2021/07/07 09:32:15;;;;;;;4.40;1.00;;;;;;;25.62;40.98;100626.97;4941266;29;20547;-87
2021/07/07 09:34:42;;;;;;;6.95;1.30;;;;;;;25.38;41.57;100619.97;4957871;29;20035;-87
2021/07/07 09:37:09;;;;;;;6.90;1.10;;;;;;;26.84;41.38;100635.44;4941192;29;20420;-87
2021/07/07 09:39:35;;;;;;;4.97;0.90;;;;;;;27.13;38.36;100625.94;4941129;29;20027;-87
2021/07/07 09:42:00;;;;;;;7.18;1.10;;;;;;;27.28;37.83;100633.47;4957686;28;20386;-87
2021/07/07 09:44:31;;;;;;;5.18;1.20;;;;;;;26.80;37.82;100636.69;4957387;29;20039;-87
2021/07/07 09:46:57;;;;;;;4.65;1.00;;;;;;;26.67;36.54;100629.91;4940121;29;20443;-87
2021/07/07 09:49:24;;;;;;;6.78;1.10;;;;;;;27.95;37.22;100625.81;4940154;29;20076;-87
2021/07/07 09:51:50;;;;;;;8.35;1.50;;;;;;;27.56;36.55;100620.38;4940335;28;20506;-87
2021/07/07 09:54:15;;;;;;;4.22;1.20;;;;;;;26.93;38.61;100628.50;4940262;29;20031;-87
2021/07/07 09:56:41;;;;;;;7.00;1.10;;;;;;;26.81;37.05;100641.03;4940073;29;20042;-87
2021/07/07 10:00:42;;;;;;;8.82;1.15;;;;;;;27.57;38.27;100637.22;4940165;29;20065;-87
2021/07/07 10:05:57;;;;;;;5.43;1.40;;;;;;;26.71;39.20;100632.16;4898432;29;20044;-86
2021/07/07 10:08:35;;;;;;;6.93;1.20;;;;;;;25.37;41.44;100641.31;4936146;29;20062;-86
2021/07/07 10:11:11;;;;;;;5.93;1.10;;;;;;;27.83;39.03;100627.75;4940920;29;20050;-87
2021/07/07 10:14:45;;;;;;;9.43;1.20;;;;;;;27.60;36.79;100629.78;4937218;29;20070;-87
2021/07/07 10:17:18;;;;;;;4.82;1.00;;;;;;;25.16;40.52;100627.97;4867068;29;20120;-86
2021/07/07 10:23:25;;;;;;;5.18;1.10;;;;;;;27.69;36.39;100620.13;4877053;29;20449;-86
2021/07/07 10:26:13;;;;;;;6.90;1.15;;;;;;;27.21;36.80;100624.31;4863683;29;20040;-86
2021/07/07 10:29:30;;;;;;;;;;;;;;;;;;;;;
2021/07/07 10:32:59;;;;;;;7.25;1.40;;;;;;;27.72;37.95;100620.69;4879453;29;20029;-86
2021/07/07 10:35:55;;;;;;;6.53;1.27;;;;;;;25.72;40.50;100623.44;4894656;28;20042;-86
2021/07/07 10:45:55;;;;;;;6.93;1.40;;;;;;;28.19;37.19;100626.25;4860281;29;20039;-86
2021/07/07 10:49:22;;;;;;;4.93;1.20;;;;;;;28.06;36.77;100615.00;4797672;29;20042;-86
2021/07/07 10:52:43;;;;;;;8.00;1.27;;;;;;;28.31;33.58;100613.59;4771362;30;20045;-85
2021/07/07 10:55:11;;;;;;;7.35;2.13;;;;;;;24.11;41.97;100613.78;4859116;29;20059;-86
2021/07/07 10:57:46;;;;;;;7.75;1.38;;;;;;;26.24;38.93;100613.03;4956135;29;20027;-86
2021/07/07 11:00:21;;;;;;;4.90;0.98;;;;;;;28.08;35.78;100610.41;4939030;29;20019;-86
2021/07/07 11:02:47;;;;;;;10.00;1.20;;;;;;;25.64;38.32;100614.38;4939007;29;20023;-86
2021/07/07 11:05:27;;;;;;;5.82;1.25;;;;;;;27.13;36.20;100613.47;4938822;29;20054;-86
2021/07/07 11:07:56;;;;;;;7.60;1.20;;;;;;;26.67;38.36;100612.13;4939478;29;20117;-86
2021/07/07 11:10:23;;;;;;;10.07;1.52;;;;;;;25.40;39.43;100601.25;4970695;28;20438;-87
2021/07/07 11:12:55;;;;;;;6.22;1.10;;;;;;;26.81;36.16;100603.78;4938796;29;20027;-86
2021/07/07 11:15:27;;;;;;;5.00;1.00;;;;;;;27.23;34.07;100609.06;4939170;29;20055;-85
2021/07/07 11:17:55;;;;;;;5.22;1.02;;;;;;;26.94;36.67;100602.72;4938624;29;20020;-85
2021/07/07 11:20:27;;;;;;;6.45;1.10;;;;;;;28.75;34.79;100602.47;4939216;29;20113;-86
2021/07/07 11:23:04;;;;;;;5.68;1.23;;;;;;;27.30;34.31;100604.03;4938502;29;20496;-86
2021/07/07 11:25:31;;;;;;;5.05;1.13;;;;;;;25.24;41.61;100606.94;4938597;29;20030;-86
2021/07/07 11:28:01;;;;;;;3.78;0.98;;;;;;;27.22;35.63;100603.88;4938434;29;20435;-86
2021/07/07 11:30:26;;;;;;;8.27;1.30;;;;;;;28.12;33.62;100602.94;4938287;29;20073;-86
2021/07/07 11:32:56;;;;;;;5.05;1.20;;;;;;;29.35;33.37;100606.50;4939218;29;20026;-87
2021/07/07 11:35:33;;;;;;;5.18;1.27;;;;;;;26.76;35.80;100605.16;4955608;29;20027;-86
2021/07/07 11:38:22;;;;;;;5.30;1.13;;;;;;;26.16;35.32;100597.69;4970333;28;20027;-85
2021/07/07 11:41:00;;;;;;;10.88;1.45;;;;;;;26.81;34.14;100597.59;4955719;29;20085;-85
2021/07/07 11:43:32;;;;;;;6.82;1.10;;;;;;;26.93;34.44;100595.72;4938322;29;20035;-85
2021/07/07 11:46:18;;;;;;;;;;;;;;;;;;;;;
2021/07/07 11:48:46;;;;;;;4.63;0.88;;;;;;;27.14;32.47;100601.00;4955650;29;20497;-85
2021/07/07 11:51:21;;;;;;;6.55;0.90;;;;;;;27.76;31.83;100611.44;4955521;29;20067;-86